sensor_id;sensor_type;location;lat;lon;timestamp;P1;P4;P2;P0;N10;N4;N25;N1;N05;TS
78703;SPS30;68034;51.966;5.676;2023-08-24T00:00:00;5.2;5.2;5.2;5.0;;;;1.0;50.0;
78703;SPS30;68034;51.966;5.676;2023-08-24T00:02:30;0.0;0.0;0.0;0.0;;;;1.0;50.0;
78703;SPS30;68034;51.966;5.676;2023-08-24T00:04:59;0.0;0.0;0.0;0.0;;;;1.0;50.0;
78703;SPS30;68034;51.966;5.676;2023-08-24T00:07:28;0.7;0.7;0.7;0.6;;;;1.0;50.0;
78703;SPS30;68034;51.966;5.676;2023-08-24T00:09:58;0.0;0.0;0.0;0.0;;;;1.0;50.0;
78703;SPS30;68034;51.966;5.676;2023-08-24T00:12:27;0.0;0.0;0.0;0.0;;;;1.0;50.0;
78703;SPS30;68034;51.966;5.676;2023-08-24T00:14:56;0.0;0.0;0.0;0.0;;;;1.0;51.0;
78703;SPS30;68034;51.966;5.676;2023-08-24T00:17:25;0.4;0.4;0.4;0.4;;;;1.0;51.0;
78703;SPS30;68034;51.966;5.676;2023-08-24T00:19:53;0.0;0.0;0.0;0.0;;;;1.0;52.0;
78703;SPS30;68034;51.966;5.676;2023-08-24T00:22:22;0.0;0.0;0.0;0.0;;;;1.0;53.0;
78703;SPS30;68034;51.966;5.676;2023-08-24T00:24:51;0.0;0.0;0.0;0.0;;;;1.0;54.0;
78703;SPS30;68034;51.966;5.676;2023-08-24T00:27:20;0.0;0.0;0.0;0.0;;;;1.0;55.0;
78703;SPS30;68034;51.966;5.676;2023-08-24T00:29:48;0.0;0.0;0.0;0.0;;;;1.0;56.0;
78703;SPS30;68034;51.966;5.676;2023-08-24T00:32:17;0.0;0.0;0.0;0.0;;;;1.0;57.0;
78703;SPS30;68034;51.966;5.676;2023-08-24T00:34:45;0.0;0.0;0.0;0.0;;;;1.0;57.0;
78703;SPS30;68034;51.966;5.676;2023-08-24T00:37:14;0.0;0.0;0.0;0.0;;;;1.0;58.0;
78703;SPS30;68034;51.966;5.676;2023-08-24T00:39:43;0.0;0.0;0.0;0.0;;;;1.0;58.0;
78703;SPS30;68034;51.966;5.676;2023-08-24T00:42:12;0.0;0.0;0.0;0.0;;;;1.0;58.0;
78703;SPS30;68034;51.966;5.676;2023-08-24T00:44:41;0.0;0.0;0.0;0.0;;;;1.0;58.0;
78703;SPS30;68034;51.966;5.676;2023-08-24T00:47:09;0.0;0.0;0.0;0.0;;;;1.0;58.0;
78703;SPS30;68034;51.966;5.676;2023-08-24T00:49:39;0.0;0.0;0.0;0.0;;;;1.0;58.0;
78703;SPS30;68034;51.966;5.676;2023-08-24T00:52:08;0.0;0.0;0.0;0.0;;;;1.0;58.0;
78703;SPS30;68034;51.966;5.676;2023-08-24T00:54:38;0.0;0.0;0.0;0.0;;;;1.0;57.0;
78703;SPS30;68034;51.966;5.676;2023-08-24T00:57:08;0.0;0.0;0.0;0.0;;;;1.0;57.0;
78703;SPS30;68034;51.966;5.676;2023-08-24T00:59:38;0.0;0.0;0.0;0.0;;;;1.0;57.0;
78703;SPS30;68034;51.966;5.676;2023-08-24T01:02:08;0.0;0.0;0.0;0.0;;;;1.0;57.0;
78703;SPS30;68034;51.966;5.676;2023-08-24T01:04:40;0.0;0.0;0.0;0.0;;;;1.0;58.0;
78703;SPS30;68034;51.966;5.676;2023-08-24T01:07:10;0.5;0.5;0.5;0.5;;;;1.0;58.0;
78703;SPS30;68034;51.966;5.676;2023-08-24T01:09:39;0.0;0.0;0.0;0.0;;;;1.0;59.0;
78703;SPS30;68034;51.966;5.676;2023-08-24T01:12:10;0.0;0.0;0.0;0.0;;;;1.0;59.0;
78703;SPS30;68034;51.966;5.676;2023-08-24T01:14:50;0.0;0.0;0.0;0.0;;;;1.0;59.0;
78703;SPS30;68034;51.966;5.676;2023-08-24T01:17:29;1.1;1.1;1.1;1.0;;;;1.0;60.0;
78703;SPS30;68034;51.966;5.676;2023-08-24T01:20:02;0.0;0.0;0.0;0.0;;;;1.0;60.0;
78703;SPS30;68034;51.966;5.676;2023-08-24T01:22:36;0.0;0.0;0.0;0.0;;;;1.0;60.0;
78703;SPS30;68034;51.966;5.676;2023-08-24T01:25:15;0.0;0.0;0.0;0.0;;;;1.0;60.0;
78703;SPS30;68034;51.966;5.676;2023-08-24T01:27:49;0.0;0.0;0.0;0.0;;;;1.0;60.0;
78703;SPS30;68034;51.966;5.676;2023-08-24T01:30:19;0.0;0.0;0.0;0.0;;;;1.0;60.0;
78703;SPS30;68034;51.966;5.676;2023-08-24T01:32:48;0.0;0.0;0.0;0.0;;;;1.0;60.0;
78703;SPS30;68034;51.966;5.676;2023-08-24T01:35:17;0.0;0.0;0.0;0.0;;;;1.0;60.0;
78703;SPS30;68034;51.966;5.676;2023-08-24T01:37:46;0.0;0.0;0.0;0.0;;;;1.0;59.0;
78703;SPS30;68034;51.966;5.676;2023-08-24T01:40:15;0.0;0.0;0.0;0.0;;;;1.0;59.0;
78703;SPS30;68034;51.966;5.676;2023-08-24T01:42:55;0.0;0.0;0.0;0.0;;;;1.0;59.0;
78703;SPS30;68034;51.966;5.676;2023-08-24T01:45:28;0.0;0.0;0.0;0.0;;;;1.0;59.0;
78703;SPS30;68034;51.966;5.676;2023-08-24T01:48:00;0.0;0.0;0.0;0.0;;;;1.0;59.0;
78703;SPS30;68034;51.966;5.676;2023-08-24T01:50:31;0.0;0.0;0.0;0.0;;;;1.0;59.0;
78703;SPS30;68034;51.966;5.676;2023-08-24T01:53:02;0.0;0.0;0.0;0.0;;;;1.0;59.0;
78703;SPS30;68034;51.966;5.676;2023-08-24T01:55:31;0.0;0.0;0.0;0.0;;;;1.0;59.0;
78703;SPS30;68034;51.966;5.676;2023-08-24T01:58:00;0.0;0.0;0.0;0.0;;;;1.0;60.0;
78703;SPS30;68034;51.966;5.676;2023-08-24T02:00:29;0.9;0.9;0.9;0.9;;;;1.0;60.0;
78703;SPS30;68034;51.966;5.676;2023-08-24T02:02:57;0.0;0.0;0.0;0.0;;;;1.0;61.0;
78703;SPS30;68034;51.966;5.676;2023-08-24T02:05:26;0.0;0.0;0.0;0.0;;;;1.0;62.0;
78703;SPS30;68034;51.966;5.676;2023-08-24T02:07:55;0.1;0.1;0.1;0.1;;;;1.0;62.0;
78703;SPS30;68034;51.966;5.676;2023-08-24T02:10:24;0.0;0.0;0.0;0.0;;;;1.0;63.0;
78703;SPS30;68034;51.966;5.676;2023-08-24T02:12:52;0.0;0.0;0.0;0.0;;;;1.0;63.0;
78703;SPS30;68034;51.966;5.676;2023-08-24T02:15:21;0.0;0.0;0.0;0.0;;;;1.0;64.0;
78703;SPS30;68034;51.966;5.676;2023-08-24T02:17:50;0.0;0.0;0.0;0.0;;;;1.0;64.0;
78703;SPS30;68034;51.966;5.676;2023-08-24T02:20:18;0.0;0.0;0.0;0.0;;;;1.0;65.0;
78703;SPS30;68034;51.966;5.676;2023-08-24T02:22:49;0.0;0.0;0.0;0.0;;;;1.0;65.0;
78703;SPS30;68034;51.966;5.676;2023-08-24T02:25:17;0.0;0.0;0.0;0.0;;;;1.0;66.0;
78703;SPS30;68034;51.966;5.676;2023-08-24T02:27:46;0.0;0.0;0.0;0.0;;;;1.0;66.0;
78703;SPS30;68034;51.966;5.676;2023-08-24T02:30:15;0.0;0.0;0.0;0.0;;;;1.0;66.0;
78703;SPS30;68034;51.966;5.676;2023-08-24T02:32:43;0.0;0.0;0.0;0.0;;;;1.0;66.0;
78703;SPS30;68034;51.966;5.676;2023-08-24T02:35:12;0.0;0.0;0.0;0.0;;;;1.0;66.0;
78703;SPS30;68034;51.966;5.676;2023-08-24T02:37:41;0.0;0.0;0.0;0.0;;;;1.0;66.0;
78703;SPS30;68034;51.966;5.676;2023-08-24T02:40:09;0.0;0.0;0.0;0.0;;;;1.0;66.0;
78703;SPS30;68034;51.966;5.676;2023-08-24T02:42:38;0.0;0.0;0.0;0.0;;;;1.0;66.0;
78703;SPS30;68034;51.966;5.676;2023-08-24T02:45:09;0.0;0.0;0.0;0.0;;;;1.0;66.0;
78703;SPS30;68034;51.966;5.676;2023-08-24T02:47:38;0.0;0.0;0.0;0.0;;;;1.0;65.0;
78703;SPS30;68034;51.966;5.676;2023-08-24T02:50:07;0.0;0.0;0.0;0.0;;;;1.0;65.0;
78703;SPS30;68034;51.966;5.676;2023-08-24T02:52:36;0.0;0.0;0.0;0.0;;;;1.0;65.0;
78703;SPS30;68034;51.966;5.676;2023-08-24T02:55:07;0.0;0.0;0.0;0.0;;;;1.0;65.0;
78703;SPS30;68034;51.966;5.676;2023-08-24T02:57:36;0.0;0.0;0.0;0.0;;;;1.0;64.0;
78703;SPS30;68034;51.966;5.676;2023-08-24T03:00:05;0.0;0.0;0.0;0.0;;;;1.0;64.0;
78703;SPS30;68034;51.966;5.676;2023-08-24T03:02:35;0.1;0.1;0.1;0.1;;;;1.0;64.0;
78703;SPS30;68034;51.966;5.676;2023-08-24T03:05:05;0.0;0.0;0.0;0.0;;;;1.0;63.0;
78703;SPS30;68034;51.966;5.676;2023-08-24T03:07:33;0.0;0.0;0.0;0.0;;;;1.0;63.0;
78703;SPS30;68034;51.966;5.676;2023-08-24T03:10:02;0.7;0.7;0.7;0.7;;;;1.0;62.0;
78703;SPS30;68034;51.966;5.676;2023-08-24T03:12:31;0.0;0.0;0.0;0.0;;;;1.0;62.0;
78703;SPS30;68034;51.966;5.676;2023-08-24T03:15:00;0.0;0.0;0.0;0.0;;;;1.0;61.0;
78703;SPS30;68034;51.966;5.676;2023-08-24T03:17:29;0.0;0.0;0.0;0.0;;;;1.0;61.0;
78703;SPS30;68034;51.966;5.676;2023-08-24T03:19:59;0.0;0.0;0.0;0.0;;;;1.0;61.0;
78703;SPS30;68034;51.966;5.676;2023-08-24T03:22:28;0.0;0.0;0.0;0.0;;;;1.0;60.0;
78703;SPS30;68034;51.966;5.676;2023-08-24T03:24:57;0.3;0.3;0.3;0.3;;;;1.0;60.0;
78703;SPS30;68034;51.966;5.676;2023-08-24T03:27:25;1.3;1.3;1.3;1.3;;;;1.0;59.0;
78703;SPS30;68034;51.966;5.676;2023-08-24T03:29:55;0.0;0.0;0.0;0.0;;;;1.0;59.0;
78703;SPS30;68034;51.966;5.676;2023-08-24T03:32:23;0.0;0.0;0.0;0.0;;;;1.0;58.0;
78703;SPS30;68034;51.966;5.676;2023-08-24T03:34:54;0.0;0.0;0.0;0.0;;;;1.0;58.0;
78703;SPS30;68034;51.966;5.676;2023-08-24T03:37:29;0.0;0.0;0.0;0.0;;;;1.0;58.0;
78703;SPS30;68034;51.966;5.676;2023-08-24T03:39:57;0.5;0.5;0.5;0.5;;;;1.0;58.0;
78703;SPS30;68034;51.966;5.676;2023-08-24T03:42:26;0.3;0.3;0.3;0.3;;;;1.0;58.0;
78703;SPS30;68034;51.966;5.676;2023-08-24T03:44:54;0.1;0.1;0.1;0.1;;;;1.0;58.0;
78703;SPS30;68034;51.966;5.676;2023-08-24T03:47:23;0.0;0.0;0.0;0.0;;;;1.0;57.0;
78703;SPS30;68034;51.966;5.676;2023-08-24T03:49:51;0.0;0.0;0.0;0.0;;;;1.0;57.0;
78703;SPS30;68034;51.966;5.676;2023-08-24T03:52:21;0.2;0.2;0.2;0.1;;;;1.0;57.0;
78703;SPS30;68034;51.966;5.676;2023-08-24T03:54:49;1.3;1.3;1.3;1.3;;;;1.0;57.0;
78703;SPS30;68034;51.966;5.676;2023-08-24T03:57:18;0.2;0.2;0.2;0.2;;;;1.0;57.0;
78703;SPS30;68034;51.966;5.676;2023-08-24T03:59:46;0.0;0.0;0.0;0.0;;;;1.0;57.0;
78703;SPS30;68034;51.966;5.676;2023-08-24T04:02:15;0.0;0.0;0.0;0.0;;;;1.0;57.0;
78703;SPS30;68034;51.966;5.676;2023-08-24T04:04:44;0.6;0.6;0.6;0.5;;;;1.0;57.0;
78703;SPS30;68034;51.966;5.676;2023-08-24T04:07:14;0.2;0.2;0.2;0.2;;;;1.0;56.0;
78703;SPS30;68034;51.966;5.676;2023-08-24T04:09:42;0.0;0.0;0.0;0.0;;;;1.0;56.0;
78703;SPS30;68034;51.966;5.676;2023-08-24T04:12:11;0.0;0.0;0.0;0.0;;;;1.0;55.0;
78703;SPS30;68034;51.966;5.676;2023-08-24T04:14:40;0.3;0.3;0.3;0.2;;;;1.0;55.0;
78703;SPS30;68034;51.966;5.676;2023-08-24T04:17:09;0.0;0.0;0.0;0.0;;;;1.0;55.0;
78703;SPS30;68034;51.966;5.676;2023-08-24T04:19:39;0.0;0.0;0.0;0.0;;;;1.0;55.0;
78703;SPS30;68034;51.966;5.676;2023-08-24T04:22:09;0.0;0.0;0.0;0.0;;;;1.0;55.0;
78703;SPS30;68034;51.966;5.676;2023-08-24T04:24:38;0.0;0.0;0.0;0.0;;;;1.0;56.0;
78703;SPS30;68034;51.966;5.676;2023-08-24T04:27:08;0.0;0.0;0.0;0.0;;;;1.0;56.0;
78703;SPS30;68034;51.966;5.676;2023-08-24T04:29:37;0.0;0.0;0.0;0.0;;;;1.0;56.0;
78703;SPS30;68034;51.966;5.676;2023-08-24T04:32:06;0.1;0.1;0.1;0.1;;;;1.0;56.0;
78703;SPS30;68034;51.966;5.676;2023-08-24T04:34:34;0.0;0.0;0.0;0.0;;;;1.0;57.0;
78703;SPS30;68034;51.966;5.676;2023-08-24T04:37:03;0.0;0.0;0.0;0.0;;;;1.0;57.0;
78703;SPS30;68034;51.966;5.676;2023-08-24T04:39:33;0.0;0.0;0.0;0.0;;;;1.0;58.0;
78703;SPS30;68034;51.966;5.676;2023-08-24T04:42:03;0.0;0.0;0.0;0.0;;;;1.0;59.0;
78703;SPS30;68034;51.966;5.676;2023-08-24T04:44:32;0.0;0.0;0.0;0.0;;;;1.0;59.0;
78703;SPS30;68034;51.966;5.676;2023-08-24T04:47:03;0.0;0.0;0.0;0.0;;;;1.0;60.0;
78703;SPS30;68034;51.966;5.676;2023-08-24T04:49:31;0.0;0.0;0.0;0.0;;;;1.0;60.0;
78703;SPS30;68034;51.966;5.676;2023-08-24T04:52:00;0.0;0.0;0.0;0.0;;;;1.0;60.0;
78703;SPS30;68034;51.966;5.676;2023-08-24T04:54:29;0.0;0.0;0.0;0.0;;;;1.0;59.0;
78703;SPS30;68034;51.966;5.676;2023-08-24T04:56:57;0.2;0.2;0.2;0.1;;;;1.0;58.0;
78703;SPS30;68034;51.966;5.676;2023-08-24T04:59:26;0.0;0.0;0.0;0.0;;;;1.0;58.0;
78703;SPS30;68034;51.966;5.676;2023-08-24T05:01:54;0.1;0.1;0.1;0.1;;;;1.0;58.0;
78703;SPS30;68034;51.966;5.676;2023-08-24T05:04:23;0.0;0.0;0.0;0.0;;;;1.0;58.0;
78703;SPS30;68034;51.966;5.676;2023-08-24T05:06:52;0.0;0.0;0.0;0.0;;;;1.0;59.0;
78703;SPS30;68034;51.966;5.676;2023-08-24T05:09:20;0.0;0.0;0.0;0.0;;;;1.0;59.0;
78703;SPS30;68034;51.966;5.676;2023-08-24T05:11:49;0.0;0.0;0.0;0.0;;;;1.0;59.0;
78703;SPS30;68034;51.966;5.676;2023-08-24T05:14:18;0.1;0.1;0.1;0.1;;;;1.0;59.0;
78703;SPS30;68034;51.966;5.676;2023-08-24T05:16:46;0.0;0.0;0.0;0.0;;;;1.0;59.0;
78703;SPS30;68034;51.966;5.676;2023-08-24T05:19:15;0.0;0.0;0.0;0.0;;;;1.0;59.0;
78703;SPS30;68034;51.966;5.676;2023-08-24T05:21:43;0.0;0.0;0.0;0.0;;;;1.0;59.0;
78703;SPS30;68034;51.966;5.676;2023-08-24T05:24:12;0.0;0.0;0.0;0.0;;;;1.0;59.0;
78703;SPS30;68034;51.966;5.676;2023-08-24T05:26:40;0.1;0.1;0.1;0.1;;;;1.0;58.0;
78703;SPS30;68034;51.966;5.676;2023-08-24T05:29:09;0.0;0.0;0.0;0.0;;;;1.0;58.0;
78703;SPS30;68034;51.966;5.676;2023-08-24T05:31:37;0.2;0.2;0.2;0.2;;;;1.0;58.0;
78703;SPS30;68034;51.966;5.676;2023-08-24T05:34:06;0.0;0.0;0.0;0.0;;;;2.0;57.0;
78703;SPS30;68034;51.966;5.676;2023-08-24T05:36:34;0.0;0.0;0.0;0.0;;;;2.0;56.0;
78703;SPS30;68034;51.966;5.676;2023-08-24T05:39:03;0.0;0.0;0.0;0.0;;;;2.0;54.0;
78703;SPS30;68034;51.966;5.676;2023-08-24T05:41:32;0.0;0.0;0.0;0.0;;;;2.0;54.0;
78703;SPS30;68034;51.966;5.676;2023-08-24T05:44:02;0.0;0.0;0.0;0.0;;;;2.0;53.0;
78703;SPS30;68034;51.966;5.676;2023-08-24T05:46:31;0.0;0.0;0.0;0.0;;;;2.0;53.0;
78703;SPS30;68034;51.966;5.676;2023-08-24T05:49:00;0.5;0.5;0.5;0.5;;;;2.0;53.0;
78703;SPS30;68034;51.966;5.676;2023-08-24T05:51:30;0.0;0.0;0.0;0.0;;;;2.0;53.0;
78703;SPS30;68034;51.966;5.676;2023-08-24T05:53:59;0.0;0.0;0.0;0.0;;;;2.0;53.0;
78703;SPS30;68034;51.966;5.676;2023-08-24T05:56:28;0.0;0.0;0.0;0.0;;;;2.0;53.0;
78703;SPS30;68034;51.966;5.676;2023-08-24T05:58:57;0.3;0.3;0.3;0.3;;;;2.0;54.0;
78703;SPS30;68034;51.966;5.676;2023-08-24T06:01:27;0.0;0.0;0.0;0.0;;;;2.0;55.0;
78703;SPS30;68034;51.966;5.676;2023-08-24T06:03:55;0.0;0.0;0.0;0.0;;;;2.0;57.0;
78703;SPS30;68034;51.966;5.676;2023-08-24T06:06:24;0.5;0.5;0.5;0.5;;;;2.0;59.0;
78703;SPS30;68034;51.966;5.676;2023-08-24T06:08:53;0.0;0.0;0.0;0.0;;;;2.0;60.0;
78703;SPS30;68034;51.966;5.676;2023-08-24T06:11:21;0.0;0.0;0.0;0.0;;;;2.0;61.0;
78703;SPS30;68034;51.966;5.676;2023-08-24T06:13:50;0.0;0.0;0.0;0.0;;;;2.0;62.0;
78703;SPS30;68034;51.966;5.676;2023-08-24T06:16:20;0.0;0.0;0.0;0.0;;;;2.0;64.0;
78703;SPS30;68034;51.966;5.676;2023-08-24T06:18:49;0.0;0.0;0.0;0.0;;;;2.0;65.0;
78703;SPS30;68034;51.966;5.676;2023-08-24T06:21:18;0.0;0.0;0.0;0.0;;;;2.0;66.0;
78703;SPS30;68034;51.966;5.676;2023-08-24T06:23:46;0.0;0.0;0.0;0.0;;;;2.0;67.0;
78703;SPS30;68034;51.966;5.676;2023-08-24T06:26:16;0.0;0.0;0.0;0.0;;;;2.0;68.0;
78703;SPS30;68034;51.966;5.676;2023-08-24T06:28:45;0.1;0.1;0.1;0.1;;;;2.0;69.0;
78703;SPS30;68034;51.966;5.676;2023-08-24T06:31:14;0.0;0.0;0.0;0.0;;;;2.0;70.0;
78703;SPS30;68034;51.966;5.676;2023-08-24T06:33:44;0.0;0.0;0.0;0.0;;;;2.0;72.0;
78703;SPS30;68034;51.966;5.676;2023-08-24T06:36:15;0.0;0.0;0.0;0.0;;;;2.0;73.0;
78703;SPS30;68034;51.966;5.676;2023-08-24T06:38:44;0.0;0.0;0.0;0.0;;;;2.0;74.0;
78703;SPS30;68034;51.966;5.676;2023-08-24T06:41:12;0.0;0.0;0.0;0.0;;;;2.0;77.0;
78703;SPS30;68034;51.966;5.676;2023-08-24T06:43:41;0.0;0.0;0.0;0.0;;;;2.0;79.0;
78703;SPS30;68034;51.966;5.676;2023-08-24T06:46:09;0.0;0.0;0.0;0.0;;;;2.0;80.0;
78703;SPS30;68034;51.966;5.676;2023-08-24T06:48:38;0.0;0.0;0.0;0.0;;;;2.0;80.0;
78703;SPS30;68034;51.966;5.676;2023-08-24T06:51:08;1.0;1.0;1.0;1.0;;;;2.0;81.0;
78703;SPS30;68034;51.966;5.676;2023-08-24T06:53:36;0.4;0.4;0.4;0.4;;;;2.0;81.0;
78703;SPS30;68034;51.966;5.676;2023-08-24T06:56:05;0.0;0.0;0.0;0.0;;;;2.0;82.0;
78703;SPS30;68034;51.966;5.676;2023-08-24T06:58:33;0.2;0.2;0.2;0.2;;;;3.0;83.0;
78703;SPS30;68034;51.966;5.676;2023-08-24T07:01:02;0.0;0.0;0.0;0.0;;;;3.0;84.0;
78703;SPS30;68034;51.966;5.676;2023-08-24T07:03:32;0.0;0.0;0.0;0.0;;;;3.0;85.0;
78703;SPS30;68034;51.966;5.676;2023-08-24T07:06:01;0.1;0.1;0.1;0.1;;;;3.0;87.0;
78703;SPS30;68034;51.966;5.676;2023-08-24T07:08:30;0.0;0.0;0.0;0.0;;;;3.0;87.0;
78703;SPS30;68034;51.966;5.676;2023-08-24T07:10:59;0.3;0.3;0.3;0.3;;;;3.0;89.0;
78703;SPS30;68034;51.966;5.676;2023-08-24T07:13:28;0.2;0.2;0.2;0.2;;;;3.0;91.0;
78703;SPS30;68034;51.966;5.676;2023-08-24T07:15:57;1.3;1.3;1.3;1.3;;;;3.0;93.0;
78703;SPS30;68034;51.966;5.676;2023-08-24T07:18:25;0.5;0.5;0.5;0.5;;;;3.0;96.0;
78703;SPS30;68034;51.966;5.676;2023-08-24T07:20:54;0.0;0.0;0.0;0.0;;;;3.0;97.0;
78703;SPS30;68034;51.966;5.676;2023-08-24T07:23:23;0.0;0.0;0.0;0.0;;;;3.0;97.0;
78703;SPS30;68034;51.966;5.676;2023-08-24T07:25:52;0.5;0.5;0.5;0.5;;;;3.0;98.0;
78703;SPS30;68034;51.966;5.676;2023-08-24T07:28:20;0.0;0.0;0.0;0.0;;;;3.0;99.0;
78703;SPS30;68034;51.966;5.676;2023-08-24T07:30:49;0.0;0.0;0.0;0.0;;;;3.0;100.0;
78703;SPS30;68034;51.966;5.676;2023-08-24T07:33:22;0.2;0.2;0.2;0.2;;;;3.0;101.0;
78703;SPS30;68034;51.966;5.676;2023-08-24T07:35:51;0.0;0.0;0.0;0.0;;;;3.0;102.0;
78703;SPS30;68034;51.966;5.676;2023-08-24T07:38:19;0.0;0.0;0.0;0.0;;;;3.0;104.0;
78703;SPS30;68034;51.966;5.676;2023-08-24T07:40:48;0.0;0.0;0.0;0.0;;;;3.0;106.0;
78703;SPS30;68034;51.966;5.676;2023-08-24T07:43:16;0.1;0.1;0.1;0.1;;;;3.0;107.0;
78703;SPS30;68034;51.966;5.676;2023-08-24T07:45:47;0.0;0.0;0.0;0.0;;;;3.0;111.0;
78703;SPS30;68034;51.966;5.676;2023-08-24T07:48:15;0.0;0.0;0.0;0.0;;;;3.0;116.0;
78703;SPS30;68034;51.966;5.676;2023-08-24T07:50:44;0.0;0.0;0.0;0.0;;;;3.0;120.0;
78703;SPS30;68034;51.966;5.676;2023-08-24T07:53:13;0.0;0.0;0.0;0.0;;;;3.0;124.0;
78703;SPS30;68034;51.966;5.676;2023-08-24T07:55:42;0.1;0.1;0.1;0.1;;;;3.0;127.0;
78703;SPS30;68034;51.966;5.676;2023-08-24T07:58:12;0.0;0.0;0.0;0.0;;;;3.0;128.0;
78703;SPS30;68034;51.966;5.676;2023-08-24T08:00:42;0.2;0.2;0.2;0.2;;;;3.0;130.0;
78703;SPS30;68034;51.966;5.676;2023-08-24T08:03:11;0.0;0.0;0.0;0.0;;;;3.0;131.0;
78703;SPS30;68034;51.966;5.676;2023-08-24T08:05:40;0.0;0.0;0.0;0.0;;;;3.0;134.0;
78703;SPS30;68034;51.966;5.676;2023-08-24T08:08:08;0.1;0.1;0.1;0.1;;;;3.0;137.0;
78703;SPS30;68034;51.966;5.676;2023-08-24T08:10:37;0.0;0.0;0.0;0.0;;;;3.0;140.0;
78703;SPS30;68034;51.966;5.676;2023-08-24T08:13:06;0.0;0.0;0.0;0.0;;;;3.0;144.0;
78703;SPS30;68034;51.966;5.676;2023-08-24T08:15:37;0.0;0.0;0.0;0.0;;;;3.0;147.0;
78703;SPS30;68034;51.966;5.676;2023-08-24T08:18:06;1.4;1.4;1.4;1.3;;;;3.0;148.0;
78703;SPS30;68034;51.966;5.676;2023-08-24T08:20:34;0.0;0.0;0.0;0.0;;;;3.0;148.0;
78703;SPS30;68034;51.966;5.676;2023-08-24T08:23:03;0.0;0.0;0.0;0.0;;;;3.0;149.0;
78703;SPS30;68034;51.966;5.676;2023-08-24T08:25:32;0.0;0.0;0.0;0.0;;;;3.0;151.0;
78703;SPS30;68034;51.966;5.676;2023-08-24T08:28:01;0.0;0.0;0.0;0.0;;;;3.0;154.0;
78703;SPS30;68034;51.966;5.676;2023-08-24T08:30:29;0.0;0.0;0.0;0.0;;;;3.0;157.0;
78703;SPS30;68034;51.966;5.676;2023-08-24T08:33:00;0.4;0.4;0.4;0.4;;;;2.0;157.0;
78703;SPS30;68034;51.966;5.676;2023-08-24T08:35:29;0.0;0.0;0.0;0.0;;;;2.0;157.0;
78703;SPS30;68034;51.966;5.676;2023-08-24T08:37:59;0.1;0.1;0.1;0.1;;;;2.0;157.0;
78703;SPS30;68034;51.966;5.676;2023-08-24T08:40:29;0.1;0.1;0.1;0.1;;;;2.0;157.0;
78703;SPS30;68034;51.966;5.676;2023-08-24T08:42:58;0.0;0.0;0.0;0.0;;;;2.0;157.0;
78703;SPS30;68034;51.966;5.676;2023-08-24T08:45:27;0.0;0.0;0.0;0.0;;;;2.0;157.0;
78703;SPS30;68034;51.966;5.676;2023-08-24T08:47:57;0.1;0.1;0.1;0.1;;;;2.0;158.0;
78703;SPS30;68034;51.966;5.676;2023-08-24T08:50:30;0.1;0.1;0.1;0.1;;;;2.0;158.0;
78703;SPS30;68034;51.966;5.676;2023-08-24T08:53:01;0.1;0.1;0.1;0.1;;;;2.0;159.0;
78703;SPS30;68034;51.966;5.676;2023-08-24T08:55:30;1.5;1.5;1.5;1.5;;;;2.0;159.0;
78703;SPS30;68034;51.966;5.676;2023-08-24T08:57:59;0.0;0.0;0.0;0.0;;;;2.0;159.0;
78703;SPS30;68034;51.966;5.676;2023-08-24T09:00:31;0.2;0.2;0.2;0.1;;;;2.0;162.0;
78703;SPS30;68034;51.966;5.676;2023-08-24T09:03:00;0.0;0.0;0.0;0.0;;;;2.0;164.0;
78703;SPS30;68034;51.966;5.676;2023-08-24T09:05:31;0.0;0.0;0.0;0.0;;;;2.0;169.0;
78703;SPS30;68034;51.966;5.676;2023-08-24T09:08:00;0.1;0.1;0.1;0.1;;;;2.0;174.0;
78703;SPS30;68034;51.966;5.676;2023-08-24T09:10:33;4.5;4.5;4.5;4.3;;;;2.0;176.0;
78703;SPS30;68034;51.966;5.676;2023-08-24T09:13:01;0.0;0.0;0.0;0.0;;;;2.0;181.0;
78703;SPS30;68034;51.966;5.676;2023-08-24T09:15:34;0.0;0.0;0.0;0.0;;;;2.0;185.0;
78703;SPS30;68034;51.966;5.676;2023-08-24T09:18:03;0.0;0.0;0.0;0.0;;;;2.0;185.0;
78703;SPS30;68034;51.966;5.676;2023-08-24T09:20:33;0.0;0.0;0.0;0.0;;;;2.0;184.0;
78703;SPS30;68034;51.966;5.676;2023-08-24T09:23:02;0.0;0.0;0.0;0.0;;;;2.0;183.0;
78703;SPS30;68034;51.966;5.676;2023-08-24T09:25:31;0.0;0.0;0.0;0.0;;;;2.0;184.0;
78703;SPS30;68034;51.966;5.676;2023-08-24T09:28:00;0.0;0.0;0.0;0.0;;;;2.0;185.0;
78703;SPS30;68034;51.966;5.676;2023-08-24T09:30:30;0.1;0.1;0.1;0.1;;;;2.0;187.0;
78703;SPS30;68034;51.966;5.676;2023-08-24T09:33:03;0.0;0.0;0.0;0.0;;;;2.0;188.0;
78703;SPS30;68034;51.966;5.676;2023-08-24T09:35:37;0.2;0.2;0.2;0.2;;;;2.0;190.0;
78703;SPS30;68034;51.966;5.676;2023-08-24T09:38:23;0.0;0.0;0.0;0.0;;;;2.0;192.0;
78703;SPS30;68034;51.966;5.676;2023-08-24T09:40:53;0.1;0.1;0.1;0.1;;;;2.0;194.0;
78703;SPS30;68034;51.966;5.676;2023-08-24T09:43:23;0.0;0.0;0.0;0.0;;;;2.0;194.0;
78703;SPS30;68034;51.966;5.676;2023-08-24T09:45:53;0.0;0.0;0.0;0.0;;;;2.0;195.0;
78703;SPS30;68034;51.966;5.676;2023-08-24T09:48:23;0.0;0.0;0.0;0.0;;;;2.0;197.0;
78703;SPS30;68034;51.966;5.676;2023-08-24T09:50:52;0.0;0.0;0.0;0.0;;;;2.0;199.0;
78703;SPS30;68034;51.966;5.676;2023-08-24T09:53:21;0.0;0.0;0.0;0.0;;;;2.0;200.0;
78703;SPS30;68034;51.966;5.676;2023-08-24T09:55:53;0.0;0.0;0.0;0.0;;;;2.0;200.0;
78703;SPS30;68034;51.966;5.676;2023-08-24T09:58:27;1.1;1.1;1.1;1.1;;;;2.0;201.0;
78703;SPS30;68034;51.966;5.676;2023-08-24T10:00:56;0.0;0.0;0.0;0.0;;;;2.0;202.0;
78703;SPS30;68034;51.966;5.676;2023-08-24T10:03:26;0.0;0.0;0.0;0.0;;;;2.0;203.0;
78703;SPS30;68034;51.966;5.676;2023-08-24T10:05:56;0.2;0.2;0.2;0.2;;;;2.0;203.0;
78703;SPS30;68034;51.966;5.676;2023-08-24T10:08:29;0.0;0.0;0.0;0.0;;;;2.0;203.0;
78703;SPS30;68034;51.966;5.676;2023-08-24T10:11:00;0.0;0.0;0.0;0.0;;;;2.0;203.0;
78703;SPS30;68034;51.966;5.676;2023-08-24T10:13:38;0.0;0.0;0.0;0.0;;;;2.0;202.0;
78703;SPS30;68034;51.966;5.676;2023-08-24T10:16:11;0.0;0.0;0.0;0.0;;;;2.0;202.0;
78703;SPS30;68034;51.966;5.676;2023-08-24T10:18:42;0.0;0.0;0.0;0.0;;;;2.0;200.0;
78703;SPS30;68034;51.966;5.676;2023-08-24T10:21:11;1.8;1.8;1.8;1.8;;;;2.0;200.0;
78703;SPS30;68034;51.966;5.676;2023-08-24T10:23:41;0.0;0.0;0.0;0.0;;;;2.0;198.0;
78703;SPS30;68034;51.966;5.676;2023-08-24T10:26:11;0.0;0.0;0.0;0.0;;;;2.0;195.0;
78703;SPS30;68034;51.966;5.676;2023-08-24T10:28:43;0.0;0.0;0.0;0.0;;;;2.0;193.0;
78703;SPS30;68034;51.966;5.676;2023-08-24T10:31:13;0.0;0.0;0.0;0.0;;;;2.0;191.0;
78703;SPS30;68034;51.966;5.676;2023-08-24T10:33:42;6.9;6.9;6.9;6.6;;;;2.0;190.0;
78703;SPS30;68034;51.966;5.676;2023-08-24T10:36:15;0.0;0.0;0.0;0.0;;;;2.0;190.0;
78703;SPS30;68034;51.966;5.676;2023-08-24T10:38:44;0.0;0.0;0.0;0.0;;;;2.0;190.0;
78703;SPS30;68034;51.966;5.676;2023-08-24T10:41:14;0.0;0.0;0.0;0.0;;;;2.0;190.0;
78703;SPS30;68034;51.966;5.676;2023-08-24T10:43:48;0.0;0.0;0.0;0.0;;;;2.0;189.0;
78703;SPS30;68034;51.966;5.676;2023-08-24T10:46:18;0.0;0.0;0.0;0.0;;;;2.0;190.0;
78703;SPS30;68034;51.966;5.676;2023-08-24T10:48:59;0.4;0.4;0.4;0.4;;;;2.0;190.0;
78703;SPS30;68034;51.966;5.676;2023-08-24T10:51:28;0.0;0.0;0.0;0.0;;;;2.0;189.0;
78703;SPS30;68034;51.966;5.676;2023-08-24T10:53:58;0.1;0.1;0.1;0.1;;;;2.0;188.0;
78703;SPS30;68034;51.966;5.676;2023-08-24T10:56:33;0.0;0.0;0.0;0.0;;;;2.0;187.0;
78703;SPS30;68034;51.966;5.676;2023-08-24T10:59:14;0.1;0.1;0.1;0.1;;;;2.0;187.0;
78703;SPS30;68034;51.966;5.676;2023-08-24T11:01:54;0.0;0.0;0.0;0.0;;;;2.0;187.0;
78703;SPS30;68034;51.966;5.676;2023-08-24T11:04:27;0.0;0.0;0.0;0.0;;;;2.0;188.0;
78703;SPS30;68034;51.966;5.676;2023-08-24T11:06:56;0.0;0.0;0.0;0.0;;;;2.0;189.0;
78703;SPS30;68034;51.966;5.676;2023-08-24T11:09:29;0.7;0.7;0.7;0.6;;;;2.0;189.0;
78703;SPS30;68034;51.966;5.676;2023-08-24T11:12:16;0.0;0.0;0.0;0.0;;;;2.0;190.0;
78703;SPS30;68034;51.966;5.676;2023-08-24T11:14:50;0.0;0.0;0.0;0.0;;;;2.0;190.0;
78703;SPS30;68034;51.966;5.676;2023-08-24T11:17:20;0.0;0.0;0.0;0.0;;;;2.0;190.0;
78703;SPS30;68034;51.966;5.676;2023-08-24T11:19:50;0.4;0.4;0.4;0.4;;;;2.0;190.0;
78703;SPS30;68034;51.966;5.676;2023-08-24T11:22:21;0.0;0.0;0.0;0.0;;;;2.0;191.0;
78703;SPS30;68034;51.966;5.676;2023-08-24T11:24:50;0.0;0.0;0.0;0.0;;;;2.0;192.0;
78703;SPS30;68034;51.966;5.676;2023-08-24T11:27:22;0.0;0.0;0.0;0.0;;;;2.0;190.0;
78703;SPS30;68034;51.966;5.676;2023-08-24T11:29:59;0.0;0.0;0.0;0.0;;;;2.0;188.0;
78703;SPS30;68034;51.966;5.676;2023-08-24T11:32:31;0.0;0.0;0.0;0.0;;;;2.0;188.0;
78703;SPS30;68034;51.966;5.676;2023-08-24T11:35:00;0.0;0.0;0.0;0.0;;;;2.0;188.0;
78703;SPS30;68034;51.966;5.676;2023-08-24T11:37:29;0.0;0.0;0.0;0.0;;;;2.0;189.0;
78703;SPS30;68034;51.966;5.676;2023-08-24T11:39:57;0.0;0.0;0.0;0.0;;;;2.0;190.0;
78703;SPS30;68034;51.966;5.676;2023-08-24T11:42:26;0.0;0.0;0.0;0.0;;;;2.0;190.0;
78703;SPS30;68034;51.966;5.676;2023-08-24T11:45:09;0.0;0.0;0.0;0.0;;;;2.0;190.0;
78703;SPS30;68034;51.966;5.676;2023-08-24T11:47:40;0.0;0.0;0.0;0.0;;;;2.0;189.0;
78703;SPS30;68034;51.966;5.676;2023-08-24T11:50:10;0.0;0.0;0.0;0.0;;;;2.0;189.0;
78703;SPS30;68034;51.966;5.676;2023-08-24T11:52:41;0.1;0.1;0.1;0.1;;;;2.0;189.0;
78703;SPS30;68034;51.966;5.676;2023-08-24T11:55:11;0.0;0.0;0.0;0.0;;;;2.0;189.0;
78703;SPS30;68034;51.966;5.676;2023-08-24T11:57:41;0.3;0.3;0.3;0.3;;;;2.0;189.0;
78703;SPS30;68034;51.966;5.676;2023-08-24T12:00:10;0.0;0.0;0.0;0.0;;;;2.0;190.0;
78703;SPS30;68034;51.966;5.676;2023-08-24T12:02:40;0.0;0.0;0.0;0.0;;;;2.0;190.0;
78703;SPS30;68034;51.966;5.676;2023-08-24T12:05:11;0.0;0.0;0.0;0.0;;;;2.0;190.0;
78703;SPS30;68034;51.966;5.676;2023-08-24T12:07:54;0.0;0.0;0.0;0.0;;;;2.0;190.0;
78703;SPS30;68034;51.966;5.676;2023-08-24T12:10:23;0.0;0.0;0.0;0.0;;;;2.0;190.0;
78703;SPS30;68034;51.966;5.676;2023-08-24T12:13:00;0.0;0.0;0.0;0.0;;;;2.0;189.0;
78703;SPS30;68034;51.966;5.676;2023-08-24T12:15:33;0.0;0.0;0.0;0.0;;;;2.0;188.0;
78703;SPS30;68034;51.966;5.676;2023-08-24T12:18:08;0.0;0.0;0.0;0.0;;;;2.0;188.0;
78703;SPS30;68034;51.966;5.676;2023-08-24T12:20:38;0.0;0.0;0.0;0.0;;;;2.0;188.0;